Terminal Aerodrome Forecast
Issued by NWS Burlington, VT

Home | Current Version | Previous Version | Text Only | Print | Product List | Glossary On
Versions: 1 2 3 4 5 6 7 8 9 10 11 12 13 14 15
000
FTUS41 KBTV 222331
TAFBTV
TAF
KBTV 222331Z 2300/2324 18009KT P6SM VCSH SCT020 OVC040
      TEMPO 2300/2302 -SHRA BKN020 OVC028
     FM230200 20007KT P6SM BKN045 BKN200
     FM230600 21005KT P6SM SCT045 BKN250
     FM232000 22006KT P6SM BKN060=

USA.gov is the U.S. government's official web portal to all federal, state and local government web resources and services.